Terminal Aerodrome Forecast
Issued by NWS

Home | Current Version | Previous Version | Text Only | Print | Product List | Glossary On
Versions: 1 2 3 4 5 6 7 8 9 10 11 12 13 14
210
FTUS42 KTBW 221725 CCA
TAFRSW
TAF COR
KRSW 221725Z 2218/2318 10008KT P6SM VCSH SCT025 SCT050
     FM221900 19011KT P6SM VCTS SCT025CB BKN050
      TEMPO 2220/2222 VRB15G25KT 3SM TSRA BKN025CB
     FM230100 13005KT P6SM FEW030 BKN100
     FM231400 18010KT P6SM BKN050=

USA.gov is the U.S. government's official web portal to all federal, state and local government web resources and services.